sensor_id;sensor_type;location;lat;lon;timestamp;P1;durP1;ratioP1;P2;durP2;ratioP2
65822;SDS011;52585;47.566;19.056;2023-04-24T00:00:46;10.50;;;6.40;;
65822;SDS011;52585;47.566;19.056;2023-04-24T00:03:12;8.40;;;5.80;;
65822;SDS011;52585;47.566;19.056;2023-04-24T00:05:46;9.00;;;6.50;;
65822;SDS011;52585;47.566;19.056;2023-04-24T00:08:12;8.80;;;6.00;;
65822;SDS011;52585;47.566;19.056;2023-04-24T00:10:38;7.70;;;5.70;;
65822;SDS011;52585;47.566;19.056;2023-04-24T00:13:03;7.60;;;5.70;;
65822;SDS011;52585;47.566;19.056;2023-04-24T00:15:31;8.60;;;5.60;;
65822;SDS011;52585;47.566;19.056;2023-04-24T00:18:00;9.20;;;6.20;;
65822;SDS011;52585;47.566;19.056;2023-04-24T00:20:29;11.70;;;5.90;;
65822;SDS011;52585;47.566;19.056;2023-04-24T00:22:55;7.00;;;5.50;;
65822;SDS011;52585;47.566;19.056;2023-04-24T00:25:21;13.60;;;5.70;;
65822;SDS011;52585;47.566;19.056;2023-04-24T00:27:47;7.70;;;5.50;;
65822;SDS011;52585;47.566;19.056;2023-04-24T00:30:13;13.90;;;6.60;;
65822;SDS011;52585;47.566;19.056;2023-04-24T00:32:39;8.10;;;6.10;;
65822;SDS011;52585;47.566;19.056;2023-04-24T00:35:06;10.50;;;5.70;;
65822;SDS011;52585;47.566;19.056;2023-04-24T00:37:32;7.20;;;5.80;;
65822;SDS011;52585;47.566;19.056;2023-04-24T00:39:58;9.10;;;6.30;;
65822;SDS011;52585;47.566;19.056;2023-04-24T00:42:24;6.20;;;5.50;;
65822;SDS011;52585;47.566;19.056;2023-04-24T00:44:51;6.10;;;5.30;;
65822;SDS011;52585;47.566;19.056;2023-04-24T00:47:18;5.70;;;5.00;;
65822;SDS011;52585;47.566;19.056;2023-04-24T00:49:45;7.50;;;5.50;;
65822;SDS011;52585;47.566;19.056;2023-04-24T00:52:11;7.30;;;4.80;;
65822;SDS011;52585;47.566;19.056;2023-04-24T00:54:37;8.20;;;5.50;;
65822;SDS011;52585;47.566;19.056;2023-04-24T00:57:04;7.20;;;5.20;;
65822;SDS011;52585;47.566;19.056;2023-04-24T00:59:30;7.30;;;5.20;;
65822;SDS011;52585;47.566;19.056;2023-04-24T01:01:57;6.20;;;4.90;;
65822;SDS011;52585;47.566;19.056;2023-04-24T01:04:24;5.70;;;5.10;;
65822;SDS011;52585;47.566;19.056;2023-04-24T01:06:51;5.80;;;5.30;;
65822;SDS011;52585;47.566;19.056;2023-04-24T01:09:18;5.60;;;4.70;;
65822;SDS011;52585;47.566;19.056;2023-04-24T01:11:46;6.30;;;5.20;;
65822;SDS011;52585;47.566;19.056;2023-04-24T01:14:12;8.30;;;5.30;;
65822;SDS011;52585;47.566;19.056;2023-04-24T01:16:38;7.10;;;5.40;;
65822;SDS011;52585;47.566;19.056;2023-04-24T01:19:06;7.60;;;5.70;;
65822;SDS011;52585;47.566;19.056;2023-04-24T01:21:36;6.10;;;5.30;;
65822;SDS011;52585;47.566;19.056;2023-04-24T01:24:04;6.70;;;5.00;;
65822;SDS011;52585;47.566;19.056;2023-04-24T01:26:31;9.70;;;5.90;;
65822;SDS011;52585;47.566;19.056;2023-04-24T01:28:57;11.30;;;6.40;;
65822;SDS011;52585;47.566;19.056;2023-04-24T01:31:23;7.80;;;6.60;;
65822;SDS011;52585;47.566;19.056;2023-04-24T01:33:51;9.00;;;6.70;;
65822;SDS011;52585;47.566;19.056;2023-04-24T01:36:18;9.00;;;5.70;;
65822;SDS011;52585;47.566;19.056;2023-04-24T01:38:44;6.20;;;5.60;;
65822;SDS011;52585;47.566;19.056;2023-04-24T01:41:10;8.30;;;5.50;;
65822;SDS011;52585;47.566;19.056;2023-04-24T01:43:36;7.00;;;5.60;;
65822;SDS011;52585;47.566;19.056;2023-04-24T01:46:02;5.00;;;4.50;;
65822;SDS011;52585;47.566;19.056;2023-04-24T01:48:29;6.40;;;5.80;;
65822;SDS011;52585;47.566;19.056;2023-04-24T01:50:56;10.40;;;5.00;;
65822;SDS011;52585;47.566;19.056;2023-04-24T01:53:22;7.40;;;5.30;;
65822;SDS011;52585;47.566;19.056;2023-04-24T01:55:48;7.90;;;5.60;;
65822;SDS011;52585;47.566;19.056;2023-04-24T01:58:14;6.50;;;5.40;;
65822;SDS011;52585;47.566;19.056;2023-04-24T02:00:40;6.30;;;5.10;;
65822;SDS011;52585;47.566;19.056;2023-04-24T02:03:06;5.80;;;4.80;;
65822;SDS011;52585;47.566;19.056;2023-04-24T02:05:32;7.80;;;5.90;;
65822;SDS011;52585;47.566;19.056;2023-04-24T02:07:58;7.30;;;5.60;;
65822;SDS011;52585;47.566;19.056;2023-04-24T02:10:24;11.90;;;5.90;;
65822;SDS011;52585;47.566;19.056;2023-04-24T02:12:50;8.30;;;6.00;;
65822;SDS011;52585;47.566;19.056;2023-04-24T02:15:16;6.90;;;6.00;;
65822;SDS011;52585;47.566;19.056;2023-04-24T02:17:43;7.30;;;5.20;;
65822;SDS011;52585;47.566;19.056;2023-04-24T02:20:09;6.70;;;5.40;;
65822;SDS011;52585;47.566;19.056;2023-04-24T02:22:35;7.60;;;5.40;;
65822;SDS011;52585;47.566;19.056;2023-04-24T02:25:01;6.30;;;5.00;;
65822;SDS011;52585;47.566;19.056;2023-04-24T02:27:27;7.00;;;5.20;;
65822;SDS011;52585;47.566;19.056;2023-04-24T02:29:54;7.10;;;6.40;;
65822;SDS011;52585;47.566;19.056;2023-04-24T02:32:20;6.20;;;5.60;;
65822;SDS011;52585;47.566;19.056;2023-04-24T02:34:46;6.60;;;5.50;;
65822;SDS011;52585;47.566;19.056;2023-04-24T02:37:12;7.00;;;5.50;;
65822;SDS011;52585;47.566;19.056;2023-04-24T02:39:38;9.30;;;5.60;;
65822;SDS011;52585;47.566;19.056;2023-04-24T02:42:04;6.70;;;5.00;;
65822;SDS011;52585;47.566;19.056;2023-04-24T02:44:30;8.50;;;5.30;;
65822;SDS011;52585;47.566;19.056;2023-04-24T02:46:56;6.10;;;5.40;;
65822;SDS011;52585;47.566;19.056;2023-04-24T02:49:22;7.10;;;4.90;;
65822;SDS011;52585;47.566;19.056;2023-04-24T02:51:48;6.50;;;5.10;;
65822;SDS011;52585;47.566;19.056;2023-04-24T02:54:14;7.40;;;5.20;;
65822;SDS011;52585;47.566;19.056;2023-04-24T02:56:40;7.40;;;5.30;;
65822;SDS011;52585;47.566;19.056;2023-04-24T02:59:06;6.80;;;5.90;;
65822;SDS011;52585;47.566;19.056;2023-04-24T03:01:32;6.30;;;5.60;;
65822;SDS011;52585;47.566;19.056;2023-04-24T03:03:58;6.90;;;5.80;;
65822;SDS011;52585;47.566;19.056;2023-04-24T03:06:23;7.30;;;5.20;;
65822;SDS011;52585;47.566;19.056;2023-04-24T03:08:49;5.80;;;5.30;;
65822;SDS011;52585;47.566;19.056;2023-04-24T03:11:15;5.80;;;5.20;;
65822;SDS011;52585;47.566;19.056;2023-04-24T03:13:41;6.50;;;5.50;;
65822;SDS011;52585;47.566;19.056;2023-04-24T03:16:07;5.90;;;5.40;;
65822;SDS011;52585;47.566;19.056;2023-04-24T03:18:33;6.20;;;5.60;;
65822;SDS011;52585;47.566;19.056;2023-04-24T03:20:58;6.30;;;5.70;;
65822;SDS011;52585;47.566;19.056;2023-04-24T03:23:24;7.10;;;5.30;;
65822;SDS011;52585;47.566;19.056;2023-04-24T03:25:50;6.70;;;5.30;;
65822;SDS011;52585;47.566;19.056;2023-04-24T03:28:16;6.60;;;5.90;;
65822;SDS011;52585;47.566;19.056;2023-04-24T03:30:42;7.00;;;5.50;;
65822;SDS011;52585;47.566;19.056;2023-04-24T03:33:08;6.80;;;5.40;;
65822;SDS011;52585;47.566;19.056;2023-04-24T03:35:35;7.90;;;5.50;;
65822;SDS011;52585;47.566;19.056;2023-04-24T03:38:01;5.90;;;5.40;;
65822;SDS011;52585;47.566;19.056;2023-04-24T03:40:29;5.80;;;5.20;;
65822;SDS011;52585;47.566;19.056;2023-04-24T03:42:55;6.30;;;5.70;;
65822;SDS011;52585;47.566;19.056;2023-04-24T03:45:21;5.80;;;5.30;;
65822;SDS011;52585;47.566;19.056;2023-04-24T03:47:47;6.20;;;5.60;;
65822;SDS011;52585;47.566;19.056;2023-04-24T03:50:13;6.40;;;5.80;;
65822;SDS011;52585;47.566;19.056;2023-04-24T03:52:39;6.50;;;5.80;;
65822;SDS011;52585;47.566;19.056;2023-04-24T03:55:05;5.70;;;5.10;;
65822;SDS011;52585;47.566;19.056;2023-04-24T03:57:32;6.10;;;5.50;;
65822;SDS011;52585;47.566;19.056;2023-04-24T03:59:58;6.20;;;5.60;;
65822;SDS011;52585;47.566;19.056;2023-04-24T04:02:24;7.80;;;5.20;;
65822;SDS011;52585;47.566;19.056;2023-04-24T04:04:50;5.80;;;5.10;;
65822;SDS011;52585;47.566;19.056;2023-04-24T04:07:16;5.60;;;5.00;;
65822;SDS011;52585;47.566;19.056;2023-04-24T04:09:41;6.60;;;5.30;;
65822;SDS011;52585;47.566;19.056;2023-04-24T04:12:07;6.90;;;6.20;;
65822;SDS011;52585;47.566;19.056;2023-04-24T04:14:33;9.50;;;5.80;;
65822;SDS011;52585;47.566;19.056;2023-04-24T04:16:59;7.40;;;5.80;;
65822;SDS011;52585;47.566;19.056;2023-04-24T04:19:26;5.90;;;5.30;;
65822;SDS011;52585;47.566;19.056;2023-04-24T04:21:52;6.40;;;5.90;;
65822;SDS011;52585;47.566;19.056;2023-04-24T04:24:21;6.40;;;5.40;;
65822;SDS011;52585;47.566;19.056;2023-04-24T04:26:48;6.30;;;5.70;;
65822;SDS011;52585;47.566;19.056;2023-04-24T04:29:17;5.40;;;5.00;;
65822;SDS011;52585;47.566;19.056;2023-04-24T04:31:44;6.60;;;5.20;;
65822;SDS011;52585;47.566;19.056;2023-04-24T04:34:10;6.30;;;5.30;;
65822;SDS011;52585;47.566;19.056;2023-04-24T04:36:37;6.00;;;5.30;;
65822;SDS011;52585;47.566;19.056;2023-04-24T04:39:05;6.20;;;5.60;;
65822;SDS011;52585;47.566;19.056;2023-04-24T04:41:32;5.80;;;5.30;;
65822;SDS011;52585;47.566;19.056;2023-04-24T04:44:01;7.20;;;5.60;;
65822;SDS011;52585;47.566;19.056;2023-04-24T04:46:30;6.30;;;5.70;;
65822;SDS011;52585;47.566;19.056;2023-04-24T04:48:59;6.40;;;5.50;;
65822;SDS011;52585;47.566;19.056;2023-04-24T04:51:26;5.90;;;5.40;;
65822;SDS011;52585;47.566;19.056;2023-04-24T04:53:53;6.70;;;5.90;;
65822;SDS011;52585;47.566;19.056;2023-04-24T04:56:19;6.00;;;5.50;;
65822;SDS011;52585;47.566;19.056;2023-04-24T04:58:46;5.90;;;5.30;;
65822;SDS011;52585;47.566;19.056;2023-04-24T05:01:12;7.30;;;5.70;;
65822;SDS011;52585;47.566;19.056;2023-04-24T05:03:37;6.00;;;5.30;;
65822;SDS011;52585;47.566;19.056;2023-04-24T05:06:03;6.20;;;5.20;;
65822;SDS011;52585;47.566;19.056;2023-04-24T05:08:30;5.70;;;5.10;;
65822;SDS011;52585;47.566;19.056;2023-04-24T05:10:55;6.90;;;5.70;;
65822;SDS011;52585;47.566;19.056;2023-04-24T05:13:21;7.50;;;5.70;;
65822;SDS011;52585;47.566;19.056;2023-04-24T05:15:48;6.30;;;5.70;;
65822;SDS011;52585;47.566;19.056;2023-04-24T05:18:13;9.10;;;5.70;;
65822;SDS011;52585;47.566;19.056;2023-04-24T05:20:40;6.10;;;5.50;;
65822;SDS011;52585;47.566;19.056;2023-04-24T05:23:09;7.00;;;5.30;;
65822;SDS011;52585;47.566;19.056;2023-04-24T05:25:35;5.60;;;5.10;;
65822;SDS011;52585;47.566;19.056;2023-04-24T05:28:01;6.50;;;5.40;;
65822;SDS011;52585;47.566;19.056;2023-04-24T05:30:29;8.40;;;5.90;;
65822;SDS011;52585;47.566;19.056;2023-04-24T05:32:54;6.90;;;5.70;;
65822;SDS011;52585;47.566;19.056;2023-04-24T05:35:20;7.60;;;6.20;;
65822;SDS011;52585;47.566;19.056;2023-04-24T05:37:46;7.20;;;6.40;;
65822;SDS011;52585;47.566;19.056;2023-04-24T05:40:12;9.10;;;6.10;;
65822;SDS011;52585;47.566;19.056;2023-04-24T05:42:38;8.80;;;6.30;;
65822;SDS011;52585;47.566;19.056;2023-04-24T05:45:04;9.20;;;6.20;;
65822;SDS011;52585;47.566;19.056;2023-04-24T05:47:31;6.20;;;5.70;;
65822;SDS011;52585;47.566;19.056;2023-04-24T05:49:57;9.20;;;5.90;;
65822;SDS011;52585;47.566;19.056;2023-04-24T05:52:22;6.50;;;5.80;;
65822;SDS011;52585;47.566;19.056;2023-04-24T05:54:48;9.20;;;6.10;;
65822;SDS011;52585;47.566;19.056;2023-04-24T05:57:14;6.40;;;5.80;;
65822;SDS011;52585;47.566;19.056;2023-04-24T05:59:40;8.20;;;5.70;;
65822;SDS011;52585;47.566;19.056;2023-04-24T06:02:07;7.00;;;6.00;;
65822;SDS011;52585;47.566;19.056;2023-04-24T06:04:33;9.10;;;6.30;;
65822;SDS011;52585;47.566;19.056;2023-04-24T06:06:59;6.80;;;6.10;;
65822;SDS011;52585;47.566;19.056;2023-04-24T06:09:25;8.20;;;6.40;;
65822;SDS011;52585;47.566;19.056;2023-04-24T06:11:52;6.80;;;6.00;;
65822;SDS011;52585;47.566;19.056;2023-04-24T06:14:19;9.40;;;6.30;;
65822;SDS011;52585;47.566;19.056;2023-04-24T06:16:45;6.90;;;6.10;;
65822;SDS011;52585;47.566;19.056;2023-04-24T06:19:11;9.00;;;6.10;;
65822;SDS011;52585;47.566;19.056;2023-04-24T06:21:36;7.40;;;6.30;;
65822;SDS011;52585;47.566;19.056;2023-04-24T06:24:03;7.80;;;6.00;;
65822;SDS011;52585;47.566;19.056;2023-04-24T06:26:30;7.70;;;6.70;;
65822;SDS011;52585;47.566;19.056;2023-04-24T06:28:57;7.40;;;6.70;;
65822;SDS011;52585;47.566;19.056;2023-04-24T06:31:24;8.40;;;6.30;;
65822;SDS011;52585;47.566;19.056;2023-04-24T06:33:50;8.10;;;6.40;;
65822;SDS011;52585;47.566;19.056;2023-04-24T06:36:16;7.70;;;6.80;;
65822;SDS011;52585;47.566;19.056;2023-04-24T06:38:42;7.20;;;6.40;;
65822;SDS011;52585;47.566;19.056;2023-04-24T06:41:09;6.80;;;6.00;;
65822;SDS011;52585;47.566;19.056;2023-04-24T06:43:35;6.60;;;6.00;;
65822;SDS011;52585;47.566;19.056;2023-04-24T06:46:01;7.40;;;6.20;;
65822;SDS011;52585;47.566;19.056;2023-04-24T06:48:28;10.00;;;6.40;;
65822;SDS011;52585;47.566;19.056;2023-04-24T06:50:55;6.80;;;5.70;;
65822;SDS011;52585;47.566;19.056;2023-04-24T06:53:21;12.10;;;6.40;;
65822;SDS011;52585;47.566;19.056;2023-04-24T06:55:47;7.20;;;6.30;;
65822;SDS011;52585;47.566;19.056;2023-04-24T06:58:14;8.90;;;6.20;;
65822;SDS011;52585;47.566;19.056;2023-04-24T07:00:41;9.40;;;5.90;;
65822;SDS011;52585;47.566;19.056;2023-04-24T07:03:06;9.80;;;5.90;;
65822;SDS011;52585;47.566;19.056;2023-04-24T07:05:33;10.90;;;6.50;;
65822;SDS011;52585;47.566;19.056;2023-04-24T07:08:03;9.20;;;5.70;;
65822;SDS011;52585;47.566;19.056;2023-04-24T07:10:29;6.10;;;5.50;;
65822;SDS011;52585;47.566;19.056;2023-04-24T07:12:55;6.20;;;5.30;;
65822;SDS011;52585;47.566;19.056;2023-04-24T07:15:22;6.40;;;5.80;;
65822;SDS011;52585;47.566;19.056;2023-04-24T07:17:49;10.40;;;6.10;;
65822;SDS011;52585;47.566;19.056;2023-04-24T07:20:15;8.30;;;6.30;;
65822;SDS011;52585;47.566;19.056;2023-04-24T07:22:41;7.80;;;5.60;;
65822;SDS011;52585;47.566;19.056;2023-04-24T07:25:08;9.80;;;6.50;;
65822;SDS011;52585;47.566;19.056;2023-04-24T07:27:35;7.90;;;6.00;;
65822;SDS011;52585;47.566;19.056;2023-04-24T07:30:02;9.40;;;6.50;;
65822;SDS011;52585;47.566;19.056;2023-04-24T07:32:29;6.90;;;6.20;;
65822;SDS011;52585;47.566;19.056;2023-04-24T07:34:55;7.60;;;5.90;;
65822;SDS011;52585;47.566;19.056;2023-04-24T07:37:22;8.30;;;5.70;;
65822;SDS011;52585;47.566;19.056;2023-04-24T07:39:49;7.30;;;5.40;;
65822;SDS011;52585;47.566;19.056;2023-04-24T07:42:15;9.70;;;5.60;;
65822;SDS011;52585;47.566;19.056;2023-04-24T07:44:41;8.60;;;5.70;;
65822;SDS011;52585;47.566;19.056;2023-04-24T07:47:07;8.50;;;5.60;;
65822;SDS011;52585;47.566;19.056;2023-04-24T07:49:33;7.40;;;5.80;;
65822;SDS011;52585;47.566;19.056;2023-04-24T07:52:00;8.80;;;5.80;;
65822;SDS011;52585;47.566;19.056;2023-04-24T07:54:27;8.20;;;6.10;;
65822;SDS011;52585;47.566;19.056;2023-04-24T07:56:54;7.30;;;5.90;;
65822;SDS011;52585;47.566;19.056;2023-04-24T07:59:20;6.00;;;5.50;;
65822;SDS011;52585;47.566;19.056;2023-04-24T08:01:45;8.90;;;5.90;;
65822;SDS011;52585;47.566;19.056;2023-04-24T08:04:11;7.60;;;6.00;;
65822;SDS011;52585;47.566;19.056;2023-04-24T08:06:37;6.30;;;5.70;;
65822;SDS011;52585;47.566;19.056;2023-04-24T08:09:02;6.30;;;5.70;;
65822;SDS011;52585;47.566;19.056;2023-04-24T08:11:28;9.30;;;5.60;;
65822;SDS011;52585;47.566;19.056;2023-04-24T08:13:54;7.60;;;5.80;;
65822;SDS011;52585;47.566;19.056;2023-04-24T08:16:20;6.90;;;5.60;;
65822;SDS011;52585;47.566;19.056;2023-04-24T08:18:46;6.80;;;5.80;;
65822;SDS011;52585;47.566;19.056;2023-04-24T08:21:12;9.30;;;5.80;;
65822;SDS011;52585;47.566;19.056;2023-04-24T08:23:42;10.50;;;5.60;;
65822;SDS011;52585;47.566;19.056;2023-04-24T08:26:08;7.10;;;5.60;;
65822;SDS011;52585;47.566;19.056;2023-04-24T08:28:36;8.20;;;6.00;;
65822;SDS011;52585;47.566;19.056;2023-04-24T08:31:02;9.40;;;6.30;;
65822;SDS011;52585;47.566;19.056;2023-04-24T08:33:27;10.00;;;6.60;;
65822;SDS011;52585;47.566;19.056;2023-04-24T08:36:00;7.20;;;6.00;;
65822;SDS011;52585;47.566;19.056;2023-04-24T08:38:29;7.10;;;6.20;;
65822;SDS011;52585;47.566;19.056;2023-04-24T08:40:57;7.90;;;5.90;;
65822;SDS011;52585;47.566;19.056;2023-04-24T08:43:25;6.90;;;6.30;;
65822;SDS011;52585;47.566;19.056;2023-04-24T08:45:54;9.80;;;6.60;;
65822;SDS011;52585;47.566;19.056;2023-04-24T08:48:22;9.80;;;6.60;;
65822;SDS011;52585;47.566;19.056;2023-04-24T08:50:50;7.90;;;6.20;;
65822;SDS011;52585;47.566;19.056;2023-04-24T08:53:18;10.20;;;7.10;;
65822;SDS011;52585;47.566;19.056;2023-04-24T08:55:47;9.80;;;6.60;;
65822;SDS011;52585;47.566;19.056;2023-04-24T08:58:16;7.00;;;6.10;;
65822;SDS011;52585;47.566;19.056;2023-04-24T09:00:43;6.60;;;6.00;;
65822;SDS011;52585;47.566;19.056;2023-04-24T09:03:16;7.00;;;6.30;;
65822;SDS011;52585;47.566;19.056;2023-04-24T09:05:49;7.40;;;6.00;;
65822;SDS011;52585;47.566;19.056;2023-04-24T09:08:19;14.40;;;6.60;;
65822;SDS011;52585;47.566;19.056;2023-04-24T09:10:46;7.70;;;6.90;;
65822;SDS011;52585;47.566;19.056;2023-04-24T09:13:13;7.80;;;6.10;;
65822;SDS011;52585;47.566;19.056;2023-04-24T09:15:40;6.70;;;6.00;;
65822;SDS011;52585;47.566;19.056;2023-04-24T09:18:07;6.40;;;5.50;;
65822;SDS011;52585;47.566;19.056;2023-04-24T09:20:33;6.30;;;5.70;;
65822;SDS011;52585;47.566;19.056;2023-04-24T09:23:01;10.90;;;5.80;;
65822;SDS011;52585;47.566;19.056;2023-04-24T09:25:35;10.10;;;7.10;;
65822;SDS011;52585;47.566;19.056;2023-04-24T09:28:04;11.20;;;6.60;;
65822;SDS011;52585;47.566;19.056;2023-04-24T09:30:31;13.50;;;6.70;;
65822;SDS011;52585;47.566;19.056;2023-04-24T09:33:14;10.50;;;6.60;;
65822;SDS011;52585;47.566;19.056;2023-04-24T09:35:42;7.10;;;6.10;;
65822;SDS011;52585;47.566;19.056;2023-04-24T09:38:13;8.30;;;5.20;;
65822;SDS011;52585;47.566;19.056;2023-04-24T09:40:39;8.10;;;5.10;;
65822;SDS011;52585;47.566;19.056;2023-04-24T09:43:10;6.30;;;5.00;;
65822;SDS011;52585;47.566;19.056;2023-04-24T09:45:38;8.00;;;5.10;;
65822;SDS011;52585;47.566;19.056;2023-04-24T09:48:05;4.50;;;3.90;;
65822;SDS011;52585;47.566;19.056;2023-04-24T09:50:34;5.90;;;4.30;;
65822;SDS011;52585;47.566;19.056;2023-04-24T09:53:04;5.50;;;4.90;;
65822;SDS011;52585;47.566;19.056;2023-04-24T09:55:39;8.10;;;5.30;;
65822;SDS011;52585;47.566;19.056;2023-04-24T09:58:10;6.00;;;5.00;;
65822;SDS011;52585;47.566;19.056;2023-04-24T10:00:35;6.20;;;4.80;;
65822;SDS011;52585;47.566;19.056;2023-04-24T10:03:03;7.50;;;4.80;;
65822;SDS011;52585;47.566;19.056;2023-04-24T10:05:36;7.70;;;5.20;;
65822;SDS011;52585;47.566;19.056;2023-04-24T10:08:09;9.20;;;4.80;;
65822;SDS011;52585;47.566;19.056;2023-04-24T10:10:44;6.40;;;4.60;;
65822;SDS011;52585;47.566;19.056;2023-04-24T10:13:12;6.00;;;4.60;;
65822;SDS011;52585;47.566;19.056;2023-04-24T10:15:41;5.80;;;4.30;;
65822;SDS011;52585;47.566;19.056;2023-04-24T10:18:08;7.40;;;4.40;;
65822;SDS011;52585;47.566;19.056;2023-04-24T10:20:36;5.40;;;4.80;;
65822;SDS011;52585;47.566;19.056;2023-04-24T10:23:04;5.00;;;4.50;;
65822;SDS011;52585;47.566;19.056;2023-04-24T10:25:33;7.20;;;4.70;;
65822;SDS011;52585;47.566;19.056;2023-04-24T10:28:01;5.30;;;4.80;;
65822;SDS011;52585;47.566;19.056;2023-04-24T10:30:30;4.90;;;4.50;;
65822;SDS011;52585;47.566;19.056;2023-04-24T10:33:01;6.90;;;5.10;;
65822;SDS011;52585;47.566;19.056;2023-04-24T10:35:34;9.90;;;4.70;;
65822;SDS011;52585;47.566;19.056;2023-04-24T10:38:16;7.70;;;4.60;;
65822;SDS011;52585;47.566;19.056;2023-04-24T10:40:50;5.80;;;5.20;;
65822;SDS011;52585;47.566;19.056;2023-04-24T10:43:17;6.40;;;4.90;;
65822;SDS011;52585;47.566;19.056;2023-04-24T10:46:01;6.80;;;5.40;;
65822;SDS011;52585;47.566;19.056;2023-04-24T10:48:28;6.90;;;5.00;;
65822;SDS011;52585;47.566;19.056;2023-04-24T10:50:55;9.60;;;5.30;;
65822;SDS011;52585;47.566;19.056;2023-04-24T10:53:27;5.60;;;4.70;;
65822;SDS011;52585;47.566;19.056;2023-04-24T10:56:02;5.50;;;4.60;;
65822;SDS011;52585;47.566;19.056;2023-04-24T10:58:38;5.20;;;4.60;;
65822;SDS011;52585;47.566;19.056;2023-04-24T11:01:27;4.90;;;4.50;;
65822;SDS011;52585;47.566;19.056;2023-04-24T11:03:57;5.40;;;4.90;;
65822;SDS011;52585;47.566;19.056;2023-04-24T11:06:34;6.20;;;4.90;;
65822;SDS011;52585;47.566;19.056;2023-04-24T11:09:08;8.00;;;5.30;;
65822;SDS011;52585;47.566;19.056;2023-04-24T11:11:38;6.90;;;5.80;;
65822;SDS011;52585;47.566;19.056;2023-04-24T11:14:09;6.00;;;5.40;;
65822;SDS011;52585;47.566;19.056;2023-04-24T11:21:48;7.90;;;6.00;;
65822;SDS011;52585;47.566;19.056;2023-04-24T11:24:49;6.80;;;6.00;;
65822;SDS011;52585;47.566;19.056;2023-04-24T11:27:20;8.00;;;5.70;;
65822;SDS011;52585;47.566;19.056;2023-04-24T11:29:51;7.50;;;5.70;;
65822;SDS011;52585;47.566;19.056;2023-04-24T11:37:46;6.10;;;5.60;;
65822;SDS011;52585;47.566;19.056;2023-04-24T11:40:18;6.20;;;5.60;;
65822;SDS011;52585;47.566;19.056;2023-04-24T11:42:47;5.90;;;5.40;;
65822;SDS011;52585;47.566;19.056;2023-04-24T11:47:43;5.80;;;5.20;;
65822;SDS011;52585;47.566;19.056;2023-04-24T11:50:11;11.40;;;5.60;;
65822;SDS011;52585;47.566;19.056;2023-04-24T11:52:41;7.10;;;5.60;;
65822;SDS011;52585;47.566;19.056;2023-04-24T11:55:28;6.80;;;6.00;;
65822;SDS011;52585;47.566;19.056;2023-04-24T11:57:57;7.00;;;5.60;;
65822;SDS011;52585;47.566;19.056;2023-04-24T12:00:29;9.40;;;5.80;;
65822;SDS011;52585;47.566;19.056;2023-04-24T12:03:13;11.60;;;6.00;;
65822;SDS011;52585;47.566;19.056;2023-04-24T12:05:39;6.80;;;6.10;;
65822;SDS011;52585;47.566;19.056;2023-04-24T12:08:05;7.20;;;5.80;;
65822;SDS011;52585;47.566;19.056;2023-04-24T12:10:32;9.70;;;6.60;;
65822;SDS011;52585;47.566;19.056;2023-04-24T12:12:59;11.20;;;5.70;;
65822;SDS011;52585;47.566;19.056;2023-04-24T12:15:26;7.40;;;5.80;;
65822;SDS011;52585;47.566;19.056;2023-04-24T12:17:53;8.40;;;6.30;;
65822;SDS011;52585;47.566;19.056;2023-04-24T12:20:26;7.70;;;5.70;;
65822;SDS011;52585;47.566;19.056;2023-04-24T12:25:27;8.00;;;6.40;;
65822;SDS011;52585;47.566;19.056;2023-04-24T12:28:08;7.60;;;6.30;;
65822;SDS011;52585;47.566;19.056;2023-04-24T12:30:44;6.80;;;6.20;;
65822;SDS011;52585;47.566;19.056;2023-04-24T12:33:22;7.90;;;6.20;;
65822;SDS011;52585;47.566;19.056;2023-04-24T12:35:51;6.40;;;5.70;;
65822;SDS011;52585;47.566;19.056;2023-04-24T12:38:25;7.20;;;6.40;;
65822;SDS011;52585;47.566;19.056;2023-04-24T12:41:11;8.90;;;5.70;;
65822;SDS011;52585;47.566;19.056;2023-04-24T12:43:38;7.40;;;5.50;;
65822;SDS011;52585;47.566;19.056;2023-04-24T12:46:04;10.40;;;5.60;;
65822;SDS011;52585;47.566;19.056;2023-04-24T12:48:30;10.50;;;5.90;;
65822;SDS011;52585;47.566;19.056;2023-04-24T12:50:57;6.50;;;5.70;;
65822;SDS011;52585;47.566;19.056;2023-04-24T12:53:27;7.50;;;6.30;;
65822;SDS011;52585;47.566;19.056;2023-04-24T12:55:54;6.00;;;5.40;;
65822;SDS011;52585;47.566;19.056;2023-04-24T12:58:21;8.50;;;6.00;;
65822;SDS011;52585;47.566;19.056;2023-04-24T13:00:47;6.40;;;5.20;;
65822;SDS011;52585;47.566;19.056;2023-04-24T13:03:14;8.30;;;6.20;;
65822;SDS011;52585;47.566;19.056;2023-04-24T13:05:41;8.20;;;6.30;;
65822;SDS011;52585;47.566;19.056;2023-04-24T13:08:07;6.50;;;5.60;;
65822;SDS011;52585;47.566;19.056;2023-04-24T13:10:34;9.10;;;6.00;;
65822;SDS011;52585;47.566;19.056;2023-04-24T13:13:00;6.50;;;5.40;;
65822;SDS011;52585;47.566;19.056;2023-04-24T13:15:25;5.70;;;5.20;;
65822;SDS011;52585;47.566;19.056;2023-04-24T13:17:51;8.70;;;5.00;;
65822;SDS011;52585;47.566;19.056;2023-04-24T13:20:17;6.30;;;4.60;;
65822;SDS011;52585;47.566;19.056;2023-04-24T13:22:44;5.60;;;4.20;;
65822;SDS011;52585;47.566;19.056;2023-04-24T13:25:09;9.90;;;4.70;;
65822;SDS011;52585;47.566;19.056;2023-04-24T13:27:37;7.20;;;5.00;;
65822;SDS011;52585;47.566;19.056;2023-04-24T13:30:04;7.60;;;4.80;;
65822;SDS011;52585;47.566;19.056;2023-04-24T13:32:32;5.30;;;4.50;;
65822;SDS011;52585;47.566;19.056;2023-04-24T13:34:58;7.50;;;4.30;;
65822;SDS011;52585;47.566;19.056;2023-04-24T13:37:24;6.80;;;4.00;;
65822;SDS011;52585;47.566;19.056;2023-04-24T13:39:50;4.50;;;4.00;;
65822;SDS011;52585;47.566;19.056;2023-04-24T13:42:16;4.60;;;3.80;;
65822;SDS011;52585;47.566;19.056;2023-04-24T13:44:42;6.40;;;4.20;;
65822;SDS011;52585;47.566;19.056;2023-04-24T13:47:08;4.00;;;3.60;;
65822;SDS011;52585;47.566;19.056;2023-04-24T13:49:35;5.10;;;3.20;;
65822;SDS011;52585;47.566;19.056;2023-04-24T13:52:09;5.00;;;2.90;;
65822;SDS011;52585;47.566;19.056;2023-04-24T13:54:39;3.20;;;2.90;;
65822;SDS011;52585;47.566;19.056;2023-04-24T13:57:09;3.20;;;2.90;;
65822;SDS011;52585;47.566;19.056;2023-04-24T13:59:46;5.30;;;2.90;;
65822;SDS011;52585;47.566;19.056;2023-04-24T14:02:18;3.20;;;2.90;;
65822;SDS011;52585;47.566;19.056;2023-04-24T14:04:45;3.30;;;3.00;;
65822;SDS011;52585;47.566;19.056;2023-04-24T14:07:13;4.30;;;3.20;;
65822;SDS011;52585;47.566;19.056;2023-04-24T14:09:44;4.00;;;3.60;;
65822;SDS011;52585;47.566;19.056;2023-04-24T14:12:10;3.80;;;3.40;;
65822;SDS011;52585;47.566;19.056;2023-04-24T14:14:36;3.80;;;3.50;;
65822;SDS011;52585;47.566;19.056;2023-04-24T14:17:01;8.50;;;3.40;;
65822;SDS011;52585;47.566;19.056;2023-04-24T14:19:27;4.80;;;3.30;;
65822;SDS011;52585;47.566;19.056;2023-04-24T14:21:53;3.80;;;3.50;;
65822;SDS011;52585;47.566;19.056;2023-04-24T14:24:20;4.30;;;3.70;;
65822;SDS011;52585;47.566;19.056;2023-04-24T14:26:46;4.40;;;4.00;;
65822;SDS011;52585;47.566;19.056;2023-04-24T14:29:12;3.30;;;3.10;;
65822;SDS011;52585;47.566;19.056;2023-04-24T14:31:38;4.30;;;3.20;;
65822;SDS011;52585;47.566;19.056;2023-04-24T14:34:04;5.20;;;3.20;;
65822;SDS011;52585;47.566;19.056;2023-04-24T14:36:30;4.50;;;4.00;;
65822;SDS011;52585;47.566;19.056;2023-04-24T14:38:56;4.40;;;3.90;;
65822;SDS011;52585;47.566;19.056;2023-04-24T14:41:24;4.00;;;3.70;;
65822;SDS011;52585;47.566;19.056;2023-04-24T14:43:51;4.40;;;3.80;;
65822;SDS011;52585;47.566;19.056;2023-04-24T14:46:18;4.90;;;4.20;;
65822;SDS011;52585;47.566;19.056;2023-04-24T14:48:45;6.20;;;4.20;;
65822;SDS011;52585;47.566;19.056;2023-04-24T14:51:12;4.40;;;4.00;;